createdAt,value
2022-11-13T00:49:50.463Z,1.98
2022-11-13T00:52:21.336Z,1.98
2022-11-13T00:54:52.034Z,1.92
2022-11-13T00:57:21.887Z,1.95
2022-11-13T00:59:51.786Z,1.83
2022-11-13T01:02:21.634Z,1.50
2022-11-13T01:04:51.604Z,1.40
2022-11-13T01:07:21.512Z,1.38
2022-11-13T01:09:54.800Z,1.20
2022-11-13T01:12:24.724Z,1.10
2022-11-13T01:14:54.666Z,1.20
2022-11-13T01:17:24.690Z,1.20
2022-11-13T01:19:54.607Z,0.90
2022-11-13T01:22:24.522Z,0.93
2022-11-13T01:24:54.368Z,1.00
2022-11-13T01:27:27.655Z,1.02
2022-11-13T01:29:57.532Z,0.90
2022-11-13T01:32:27.429Z,0.90
2022-11-13T01:34:57.357Z,0.98
2022-11-13T01:37:27.256Z,0.70
2022-11-13T01:39:57.181Z,0.88
2022-11-13T01:42:28.263Z,0.80
2022-11-13T01:45:01.194Z,0.88
2022-11-13T01:47:31.617Z,1.00
2022-11-13T01:50:03.987Z,0.88
2022-11-13T01:52:39.315Z,0.80
2022-11-13T01:55:13.516Z,0.80
2022-11-13T01:57:43.885Z,0.75
2022-11-13T02:00:14.530Z,0.80
2022-11-13T02:02:44.590Z,0.70
2022-11-13T02:05:15.483Z,0.70
2022-11-13T02:07:45.412Z,0.70
2022-11-13T02:10:15.818Z,0.70
2022-11-13T02:12:46.765Z,0.60
2022-11-13T02:15:16.686Z,0.52
2022-11-13T02:17:46.563Z,0.60
2022-11-13T02:20:17.092Z,0.70
2022-11-13T02:22:53.040Z,0.70
2022-11-13T02:25:23.042Z,0.93
2022-11-13T02:27:53.385Z,0.70
2022-11-13T02:30:27.802Z,0.55
2022-11-13T02:32:58.981Z,0.68
2022-11-13T02:35:31.718Z,0.77
2022-11-13T02:38:02.925Z,0.65
2022-11-13T02:40:33.508Z,0.70
2022-11-13T02:43:03.335Z,0.70
2022-11-13T02:45:33.300Z,0.93
2022-11-13T02:48:04.895Z,0.90
2022-11-13T02:50:34.782Z,0.63
2022-11-13T02:53:04.895Z,0.70
2022-11-13T02:55:34.918Z,0.75
2022-11-13T02:58:04.796Z,0.80
2022-11-13T03:00:34.667Z,0.70
2022-11-13T03:03:05.567Z,0.70
2022-11-13T03:05:35.430Z,0.70
2022-11-13T03:08:05.435Z,0.77
2022-11-13T03:10:35.718Z,0.70
2022-11-13T03:13:05.624Z,0.80
2022-11-13T03:15:36.753Z,0.60
2022-11-13T03:18:10.326Z,0.70
2022-11-13T03:20:41.204Z,0.73
2022-11-13T03:23:11.157Z,0.70
2022-11-13T03:25:40.993Z,0.80
2022-11-13T08:14:05.286Z,0.80
2022-11-13T08:16:35.248Z,0.70
2022-11-13T08:19:05.651Z,0.70
2022-11-13T08:21:36.701Z,0.90
2022-11-13T08:24:06.888Z,0.75
2022-11-13T08:26:37.914Z,0.80
2022-11-13T08:29:09.091Z,0.85
2022-11-13T08:31:40.008Z,0.82
2022-11-13T08:34:10.987Z,0.80
2022-11-13T08:36:40.897Z,0.80
2022-11-13T08:39:11.933Z,0.75
2022-11-13T08:41:43.912Z,0.80
2022-11-13T08:44:14.282Z,0.75
2022-11-13T08:46:44.216Z,0.50
2022-11-13T08:49:14.187Z,0.70
2022-11-13T08:51:44.082Z,0.65
2022-11-13T08:54:13.951Z,0.70
2022-11-13T08:56:43.906Z,0.50
2022-11-13T08:59:13.821Z,0.50
2022-11-13T09:01:43.721Z,0.40
2022-11-13T09:04:13.743Z,0.60
2022-11-13T09:06:45.090Z,0.60
2022-11-13T09:09:14.982Z,0.50
2022-11-13T09:11:45.346Z,0.60
2022-11-13T09:14:15.444Z,0.55
2022-11-13T09:16:45.416Z,0.57
2022-11-13T09:19:15.520Z,0.50
2022-11-13T09:21:45.615Z,0.40
2022-11-13T09:24:16.747Z,0.40
2022-11-13T09:26:46.738Z,0.30
2022-11-13T09:29:16.686Z,0.40
2022-11-13T09:31:46.773Z,0.38
2022-11-13T09:34:16.730Z,0.30
2022-11-13T09:36:46.934Z,0.40
2022-11-13T09:39:16.982Z,0.50
2022-11-13T09:41:49.767Z,0.38
2022-11-13T09:44:40.819Z,0.40
2022-11-13T09:47:22.100Z,0.50
2022-11-13T09:50:03.324Z,0.40
2022-11-13T09:57:47.624Z,0.68
2022-11-13T10:00:17.708Z,0.43
2022-11-13T10:02:50.439Z,0.50
2022-11-13T10:05:31.883Z,0.43
2022-11-13T10:08:11.120Z,0.50
2022-11-13T10:10:50.702Z,0.50
2022-11-13T10:13:28.560Z,0.50
2022-11-13T10:16:03.419Z,0.40
2022-11-13T10:18:36.915Z,0.40
2022-11-13T10:21:20.764Z,0.50
2022-11-13T10:23:53.408Z,0.60
2022-11-13T10:26:24.956Z,0.40
2022-11-13T10:28:59.800Z,0.40
2022-11-13T10:31:49.458Z,0.50
2022-11-13T10:34:20.566Z,0.45
2022-11-13T10:37:08.364Z,0.40
2022-11-13T10:39:44.915Z,0.40
2022-11-13T10:42:25.305Z,0.60
2022-11-13T10:44:59.939Z,0.43
2022-11-13T10:48:01.997Z,0.47
2022-11-13T10:50:26.331Z,0.40
2022-11-13T10:52:57.578Z,0.40
2022-11-13T10:55:43.829Z,0.50
2022-11-13T10:58:15.890Z,0.40
2022-11-13T11:00:51.280Z,0.40
2022-11-13T11:03:22.953Z,0.60
2022-11-13T11:06:56.406Z,0.60
2022-11-13T11:09:31.889Z,0.50
2022-11-13T11:12:29.065Z,0.68
2022-11-13T11:15:01.084Z,0.57
2022-11-13T11:17:49.530Z,0.50
2022-11-13T11:20:22.852Z,0.60
2022-11-13T11:22:56.407Z,0.50
2022-11-13T11:25:26.251Z,0.60
2022-11-13T11:27:59.851Z,0.40
2022-11-13T11:30:32.602Z,0.60
2022-11-13T12:50:33.494Z,0.40
2022-11-13T12:53:05.096Z,0.50
2022-11-13T12:55:39.454Z,0.40
2022-11-13T12:58:22.092Z,0.43
2022-11-13T13:01:15.229Z,0.50
2022-11-13T13:04:12.937Z,0.50
2022-11-13T13:06:46.439Z,0.47
2022-11-13T13:09:35.078Z,0.50
2022-11-13T13:12:05.451Z,0.50
2022-11-13T13:15:04.628Z,0.40
2022-11-13T13:17:34.598Z,0.52
2022-11-13T13:20:06.216Z,0.50
2022-11-13T13:22:37.973Z,0.50
2022-11-13T13:25:14.351Z,0.50
2022-11-13T13:27:45.234Z,0.60
2022-11-13T13:30:20.085Z,0.50
2022-11-13T13:32:50.359Z,0.43
2022-11-13T13:35:27.264Z,0.50
2022-11-13T13:38:04.999Z,0.43
2022-11-13T13:40:38.116Z,0.50
2022-11-13T13:43:24.543Z,0.55
2022-11-13T13:48:27.379Z,0.50
2022-11-13T14:12:00.640Z,0.55
2022-11-13T14:14:31.910Z,0.52
2022-11-13T14:17:31.264Z,0.50
2022-11-13T14:20:04.310Z,0.47
2022-11-13T14:22:35.254Z,0.60
2022-11-13T14:25:05.298Z,0.60
2022-11-13T14:27:35.766Z,0.60
2022-11-13T14:30:08.761Z,0.50
2022-11-13T14:32:46.947Z,0.60
2022-11-13T14:35:21.410Z,0.65
2022-11-13T14:37:52.004Z,0.70
2022-11-13T14:40:35.871Z,0.52
2022-11-13T14:43:42.297Z,0.70
2022-11-13T14:46:27.648Z,0.88
2022-11-13T14:48:58.438Z,0.60
2022-11-13T14:51:33.115Z,0.70
2022-11-13T14:54:08.876Z,0.70
2022-11-13T14:59:16.980Z,0.60
2022-11-13T15:01:59.826Z,0.70
2022-11-13T15:04:30.508Z,0.70
2022-11-13T15:07:02.526Z,0.60
2022-11-13T15:38:09.420Z,0.60
2022-11-13T15:40:40.686Z,0.50
2022-11-13T15:43:24.181Z,0.40
2022-11-13T15:45:54.448Z,0.40
2022-11-13T15:48:24.447Z,0.40
2022-11-13T15:50:55.482Z,0.40
2022-11-13T15:53:25.417Z,0.50
2022-11-13T15:55:55.375Z,0.45
2022-11-13T15:58:27.278Z,0.40
2022-11-13T16:01:00.868Z,0.37
2022-11-13T16:03:33.965Z,0.40
2022-11-13T16:06:04.134Z,0.30
2022-11-13T16:08:34.047Z,0.40
2022-11-13T16:11:05.943Z,0.40
2022-11-13T16:13:36.284Z,0.40
2022-11-13T16:16:07.396Z,0.43
2022-11-13T16:19:14.904Z,0.40
2022-11-13T16:21:44.747Z,0.30
2022-11-13T16:24:14.612Z,0.30
2022-11-13T16:26:47.512Z,0.25
2022-11-13T16:29:25.443Z,0.40
2022-11-13T16:32:07.302Z,0.30
2022-11-13T16:34:37.152Z,0.30
2022-11-13T21:06:24.031Z,0.40
2022-11-13T21:08:57.871Z,0.60
2022-11-13T21:11:28.274Z,0.40
2022-11-13T21:14:00.390Z,0.50
2022-11-13T21:16:30.512Z,0.43
2022-11-13T21:19:02.202Z,0.50
2022-11-13T21:21:32.131Z,0.50
2022-11-13T21:24:02.227Z,0.40
2022-11-13T21:26:32.657Z,0.40
2022-11-13T21:29:02.525Z,0.40
2022-11-13T21:31:32.467Z,0.30
2022-11-13T21:34:26.772Z,0.30
2022-11-13T21:36:56.609Z,0.40
2022-11-13T21:39:26.582Z,0.35
2022-11-13T21:41:56.453Z,0.47
2022-11-13T21:44:26.335Z,0.40
2022-11-13T21:46:57.022Z,0.32
2022-11-13T21:49:26.964Z,0.38
2022-11-13T21:51:56.869Z,0.40
2022-11-13T21:54:30.861Z,0.40
2022-11-13T22:47:01.526Z,0.60
2022-11-13T22:49:40.357Z,0.30
2022-11-13T22:52:19.921Z,0.38
2022-11-13T22:54:49.935Z,0.57
2022-11-13T22:57:23.387Z,0.43
2022-11-13T22:59:58.943Z,0.38
2022-11-13T23:02:28.914Z,0.50
2022-11-13T23:04:58.835Z,0.40
2022-11-13T23:07:29.416Z,0.50
2022-11-13T23:09:59.439Z,0.45
2022-11-13T23:12:50.818Z,0.55
2022-11-13T23:15:20.871Z,0.50
2022-11-13T23:17:50.825Z,0.55
2022-11-13T23:20:20.764Z,0.40
2022-11-13T23:22:53.372Z,0.35
2022-11-13T23:25:39.166Z,0.30
2022-11-13T23:28:09.236Z,0.40
2022-11-13T23:30:39.292Z,0.50
2022-11-13T23:33:29.721Z,0.50
2022-11-13T23:35:59.663Z,0.40
2022-11-13T23:38:40.227Z,0.43
2022-11-13T23:41:10.415Z,0.55
2022-11-13T23:46:30.466Z,0.40
2022-11-13T23:49:18.710Z,0.52
2022-11-13T23:51:48.739Z,0.70
2022-11-13T23:54:18.710Z,0.63
2022-11-13T23:56:53.982Z,0.50
2022-11-13T23:59:35.180Z,0.50
